createdAt,value
2023-07-01T00:00:10.426Z,188.83
2023-07-01T00:01:13.465Z,176.50
2023-07-01T00:02:16.463Z,175.67
2023-07-01T00:03:19.568Z,176.50
2023-07-01T00:04:22.703Z,175.17
2023-07-01T00:05:25.845Z,176.17
2023-07-01T00:06:29.008Z,177.67
2023-07-01T00:07:31.995Z,174.67
2023-07-01T00:08:35.198Z,171.33
2023-07-01T00:09:38.184Z,167.67
2023-07-01T00:10:41.204Z,166.67
2023-07-01T00:11:44.233Z,163.67
2023-07-01T00:12:47.237Z,163.33
2023-07-01T00:13:50.247Z,163.17
2023-07-01T00:14:53.293Z,162.33
2023-07-01T00:15:59.294Z,160.83
2023-07-01T00:17:03.612Z,160.00
2023-07-01T00:18:06.633Z,156.00
2023-07-01T00:19:09.647Z,156.67
2023-07-01T00:20:13.149Z,158.50
2023-07-01T00:21:16.148Z,159.83
2023-07-01T00:22:19.127Z,160.83
2023-07-01T00:23:22.172Z,161.17
2023-07-01T00:24:25.184Z,162.00
2023-07-01T00:25:28.169Z,162.83
2023-07-01T00:26:31.172Z,163.17
2023-07-01T00:27:34.155Z,164.00
2023-07-01T00:28:37.136Z,164.50
2023-07-01T00:29:40.124Z,165.83
2023-07-01T00:30:43.125Z,166.00
2023-07-01T00:31:46.331Z,166.00
2023-07-01T00:32:49.386Z,166.00
2023-07-01T00:33:52.417Z,167.00
2023-07-01T00:34:55.406Z,168.00
2023-07-01T00:35:58.390Z,168.83
2023-07-01T00:37:01.372Z,169.50
2023-07-01T00:38:04.747Z,171.50
2023-07-01T00:39:07.724Z,173.00
2023-07-01T00:40:11.042Z,173.00
2023-07-01T00:41:14.024Z,172.83
2023-07-01T00:42:17.157Z,173.00
2023-07-01T00:43:20.129Z,174.00
2023-07-01T00:44:23.516Z,175.83
2023-07-01T00:45:26.502Z,177.83
2023-07-01T00:46:29.548Z,180.50
2023-07-01T00:47:32.664Z,181.50
2023-07-01T00:48:35.783Z,183.83
2023-07-01T00:49:40.823Z,185.33
2023-07-01T00:50:43.915Z,186.83
2023-07-01T00:51:47.109Z,187.67
2023-07-01T00:52:51.287Z,188.83
2023-07-01T00:53:54.877Z,189.83
2023-07-01T00:54:58.034Z,190.00
2023-07-01T00:56:01.030Z,190.17
2023-07-01T00:57:05.485Z,191.17
2023-07-01T00:58:08.553Z,192.83
2023-07-01T00:59:11.537Z,196.83
2023-07-01T01:00:15.937Z,198.17
2023-07-01T01:01:35.444Z,199.00
2023-07-01T01:02:52.915Z,199.00
2023-07-01T01:04:20.554Z,198.00
2023-07-01T01:05:39.918Z,198.00
2023-07-01T01:06:54.534Z,197.17
2023-07-01T01:08:10.359Z,196.33
2023-07-01T01:09:17.540Z,197.00
2023-07-01T01:10:24.088Z,202.83
2023-07-01T01:11:33.245Z,209.33
2023-07-01T01:12:40.249Z,212.00
2023-07-01T01:13:47.509Z,212.33
2023-07-01T01:14:52.672Z,213.17
2023-07-01T01:15:59.389Z,213.00
2023-07-01T01:17:07.090Z,212.50
2023-07-01T01:18:18.112Z,212.00
2023-07-01T01:19:39.519Z,211.17
2023-07-01T01:20:42.951Z,210.33
2023-07-01T01:21:45.965Z,209.83
2023-07-01T01:23:08.951Z,208.67
2023-07-01T01:24:15.224Z,207.33
2023-07-01T01:25:28.911Z,205.67
2023-07-01T01:26:41.391Z,203.17
2023-07-01T01:27:44.744Z,202.00
2023-07-01T01:28:48.157Z,201.17
2023-07-01T01:29:51.978Z,199.50
2023-07-01T01:30:54.984Z,198.00
2023-07-01T01:31:58.206Z,197.00
2023-07-01T01:33:02.567Z,196.67
2023-07-01T01:34:06.032Z,194.50
2023-07-01T01:35:09.185Z,191.33
2023-07-01T01:36:32.510Z,190.00
2023-07-01T01:37:47.185Z,188.83
2023-07-01T01:38:51.485Z,188.83
2023-07-01T01:40:11.189Z,189.00
2023-07-01T01:41:31.134Z,189.17
2023-07-01T01:42:37.003Z,190.00
2023-07-01T01:44:04.520Z,192.33
2023-07-01T01:45:09.155Z,203.67
2023-07-01T01:46:14.085Z,224.67
2023-07-01T01:47:23.545Z,218.00
2023-07-01T01:48:26.633Z,213.33
2023-07-01T01:49:32.882Z,210.83
2023-07-01T01:50:38.586Z,207.67
2023-07-01T01:51:42.895Z,204.83
2023-07-01T01:52:46.803Z,202.17
2023-07-01T01:53:53.387Z,200.33
2023-07-01T01:54:58.946Z,198.33
2023-07-01T01:56:03.152Z,194.83
2023-07-01T01:57:06.944Z,192.50
2023-07-01T01:58:10.934Z,191.67
2023-07-01T01:59:14.163Z,190.83
2023-07-01T02:00:17.502Z,189.50
2023-07-01T02:01:20.649Z,188.33
2023-07-01T02:02:23.723Z,188.00
2023-07-01T02:03:26.883Z,188.00
2023-07-01T02:04:30.033Z,187.00
2023-07-01T02:05:33.201Z,187.00
2023-07-01T02:06:36.182Z,187.00
2023-07-01T02:07:40.325Z,187.83
2023-07-01T02:08:43.348Z,187.83
2023-07-01T02:09:46.350Z,188.00
2023-07-01T02:10:49.630Z,187.50
2023-07-01T02:11:52.816Z,187.00
2023-07-01T02:12:55.790Z,187.67
2023-07-01T02:13:58.759Z,188.17
2023-07-01T02:15:01.760Z,189.00
2023-07-01T02:16:05.052Z,189.00
2023-07-01T02:17:08.252Z,189.00
2023-07-01T02:18:11.275Z,189.00
2023-07-01T02:19:14.353Z,189.67
2023-07-01T02:20:17.569Z,189.67
2023-07-01T02:21:20.522Z,189.00
2023-07-01T02:22:23.543Z,188.33
2023-07-01T02:23:26.535Z,186.17
2023-07-01T02:24:29.546Z,185.00
2023-07-01T02:25:32.631Z,183.00
2023-07-01T02:26:35.601Z,180.00
2023-07-01T02:27:38.618Z,176.67
2023-07-01T02:28:41.606Z,173.83
2023-07-01T02:29:45.748Z,172.67
2023-07-01T02:30:49.106Z,171.17
2023-07-01T02:31:52.282Z,171.83
2023-07-01T02:32:55.335Z,172.50
2023-07-01T02:34:02.382Z,173.33
2023-07-01T02:35:06.118Z,174.00
2023-07-01T02:36:09.110Z,174.50
2023-07-01T02:37:12.088Z,174.17
2023-07-01T02:38:15.608Z,175.00
2023-07-01T02:39:18.584Z,175.00
2023-07-01T02:40:21.587Z,175.67
2023-07-01T02:41:24.603Z,176.17
2023-07-01T02:42:27.647Z,177.00
2023-07-01T02:43:30.628Z,177.00
2023-07-01T02:44:33.618Z,177.00
2023-07-01T02:45:36.600Z,176.67
2023-07-01T02:46:39.851Z,175.33
2023-07-01T02:47:43.040Z,169.83
2023-07-01T02:48:46.060Z,163.83
2023-07-01T02:49:50.223Z,162.33
2023-07-01T02:50:53.218Z,162.83
2023-07-01T02:51:56.198Z,162.83
2023-07-01T02:52:59.168Z,161.50
2023-07-01T02:54:02.142Z,159.50
2023-07-01T02:55:05.822Z,157.17
2023-07-01T02:56:08.808Z,156.50
2023-07-01T02:57:11.987Z,156.00
2023-07-01T02:58:15.074Z,152.83
2023-07-01T02:59:18.063Z,148.17
2023-07-01T03:00:31.243Z,142.00
2023-07-01T03:01:34.303Z,135.33
2023-07-01T03:02:37.381Z,130.83
2023-07-01T03:03:40.903Z,128.50
2023-07-01T03:04:43.976Z,128.00
2023-07-01T03:05:47.010Z,127.67
2023-07-01T03:06:50.025Z,128.50
2023-07-01T03:07:53.299Z,129.83
2023-07-01T03:08:56.302Z,130.50
2023-07-01T03:09:59.290Z,126.83
2023-07-01T03:11:02.295Z,122.33
2023-07-01T03:12:05.880Z,116.67
2023-07-01T03:13:08.886Z,112.50
2023-07-01T03:14:13.659Z,114.00
2023-07-01T03:15:16.679Z,114.00
2023-07-01T03:16:20.915Z,114.50
2023-07-01T03:17:25.935Z,115.00
2023-07-01T03:18:29.118Z,115.33
2023-07-01T03:19:32.107Z,116.50
2023-07-01T03:20:35.116Z,117.17
2023-07-01T03:21:38.667Z,118.50
2023-07-01T03:22:42.235Z,119.67
2023-07-01T03:23:45.254Z,121.00
2023-07-01T03:24:48.221Z,121.67
2023-07-01T03:25:51.194Z,123.00
2023-07-01T03:26:54.168Z,124.67
2023-07-01T03:27:57.173Z,125.67
2023-07-01T03:29:00.166Z,127.33
2023-07-01T03:30:03.149Z,128.67
2023-07-01T03:31:06.216Z,130.33
2023-07-01T03:32:09.930Z,131.17
2023-07-01T03:33:13.413Z,132.33
2023-07-01T03:34:17.075Z,132.33
2023-07-01T03:35:20.060Z,131.83
2023-07-01T03:36:23.060Z,130.33
2023-07-01T03:37:26.043Z,124.83
2023-07-01T03:38:29.059Z,119.67
2023-07-01T03:39:32.032Z,116.00
2023-07-01T03:40:35.021Z,116.67
2023-07-01T03:41:39.738Z,117.67
2023-07-01T03:42:44.232Z,117.83
2023-07-01T03:43:47.229Z,117.00
2023-07-01T03:44:50.205Z,116.33
2023-07-01T03:45:53.220Z,115.17
2023-07-01T03:46:56.213Z,115.33
2023-07-01T03:47:59.265Z,114.67
2023-07-01T03:49:02.264Z,112.17
2023-07-01T03:50:09.128Z,109.00
2023-07-01T03:51:12.190Z,106.50
2023-07-01T03:52:15.276Z,107.17
2023-07-01T03:53:18.581Z,107.83
2023-07-01T03:54:22.224Z,108.67
2023-07-01T03:55:26.593Z,109.00
2023-07-01T03:56:29.635Z,109.83
2023-07-01T03:57:33.840Z,110.33
2023-07-01T03:58:36.827Z,111.67
2023-07-01T03:59:39.891Z,113.50
2023-07-01T04:00:42.887Z,114.67
2023-07-01T04:01:45.914Z,115.67
2023-07-01T04:02:52.223Z,116.50
2023-07-01T04:03:57.238Z,118.00
2023-07-01T04:05:11.050Z,119.33
2023-07-01T04:06:14.031Z,122.00
2023-07-01T04:07:22.786Z,122.83
2023-07-01T04:08:25.753Z,124.67
2023-07-01T04:09:28.742Z,125.67
2023-07-01T04:10:31.841Z,129.83
2023-07-01T04:11:34.899Z,157.67
2023-07-01T04:12:39.507Z,191.67
2023-07-01T04:13:42.497Z,185.17
2023-07-01T04:14:45.473Z,173.83
2023-07-01T04:15:48.466Z,172.33
2023-07-01T04:16:52.284Z,169.33
2023-07-01T04:17:55.444Z,168.17
2023-07-01T04:18:58.488Z,168.67
2023-07-01T04:20:01.572Z,182.00
2023-07-01T04:21:04.594Z,191.33
2023-07-01T04:22:07.591Z,188.17
2023-07-01T04:23:10.633Z,190.17
2023-07-01T04:24:13.617Z,190.17
2023-07-01T04:25:16.621Z,194.17
2023-07-01T04:26:19.888Z,190.33
2023-07-01T04:27:22.879Z,187.33
2023-07-01T04:28:25.886Z,186.17
2023-07-01T04:29:28.871Z,190.67
2023-07-01T04:30:31.884Z,191.33
2023-07-01T04:31:34.933Z,188.67
2023-07-01T04:32:38.263Z,176.33
2023-07-01T04:33:41.271Z,161.00
2023-07-01T04:34:45.558Z,154.33
2023-07-01T04:35:48.566Z,153.17
2023-07-01T04:36:51.559Z,153.17
2023-07-01T04:37:54.552Z,153.50
2023-07-01T04:38:57.543Z,153.83
2023-07-01T04:40:01.153Z,154.50
2023-07-01T04:41:04.615Z,147.33
2023-07-01T04:42:07.625Z,142.00
2023-07-01T04:43:11.188Z,142.17
2023-07-01T04:44:14.160Z,145.00
2023-07-01T04:45:19.701Z,146.67
2023-07-01T04:46:22.766Z,147.83
2023-07-01T04:47:27.595Z,148.83
2023-07-01T04:48:32.000Z,151.00
2023-07-01T04:49:35.150Z,153.33
2023-07-01T04:50:38.149Z,155.83
2023-07-01T04:51:41.126Z,156.33
2023-07-01T04:52:45.224Z,146.67
2023-07-01T04:53:48.337Z,139.67
2023-07-01T04:54:52.700Z,133.00
2023-07-01T04:55:55.706Z,135.17
2023-07-01T04:56:58.701Z,138.33
2023-07-01T04:58:01.693Z,140.17
2023-07-01T04:59:04.773Z,143.50
2023-07-01T05:00:11.370Z,144.83
2023-07-01T05:01:14.458Z,146.00
2023-07-01T05:02:17.447Z,145.17
2023-07-01T05:03:20.477Z,144.67
2023-07-01T05:04:23.603Z,143.17
2023-07-01T05:05:27.359Z,143.00
2023-07-01T05:06:30.383Z,143.67
2023-07-01T05:07:33.689Z,144.00
2023-07-01T05:08:36.701Z,141.00
2023-07-01T05:09:39.740Z,140.33
2023-07-01T05:10:42.737Z,141.67
2023-07-01T05:11:45.956Z,143.00
2023-07-01T05:12:48.926Z,143.00
2023-07-01T05:13:51.906Z,143.00
2023-07-01T05:14:56.238Z,143.00
2023-07-01T05:15:59.247Z,143.83
2023-07-01T05:17:02.225Z,144.00
2023-07-01T05:18:05.275Z,144.00
2023-07-01T05:19:08.334Z,144.83
2023-07-01T05:20:12.250Z,147.00
2023-07-01T05:21:15.298Z,148.50
2023-07-01T05:22:18.284Z,149.50
2023-07-01T05:23:21.287Z,150.00
2023-07-01T05:24:24.327Z,149.33
2023-07-01T05:25:27.327Z,147.00
2023-07-01T05:26:30.295Z,142.17
2023-07-01T05:27:33.287Z,139.67
2023-07-01T05:28:36.287Z,138.00
2023-07-01T05:29:39.298Z,138.50
2023-07-01T05:30:42.308Z,139.00
2023-07-01T05:31:45.312Z,139.00
2023-07-01T05:32:48.359Z,139.00
2023-07-01T05:33:51.373Z,138.67
2023-07-01T05:34:54.362Z,138.00
2023-07-01T05:35:57.362Z,137.33
2023-07-01T05:37:00.450Z,137.00
2023-07-01T05:38:13.712Z,137.00
2023-07-01T05:39:17.461Z,137.83
2023-07-01T05:40:20.466Z,137.00
2023-07-01T05:41:23.445Z,137.00
2023-07-01T05:42:26.443Z,136.83
2023-07-01T05:43:29.444Z,135.67
2023-07-01T05:44:32.442Z,133.00
2023-07-01T05:45:35.438Z,132.33
2023-07-01T05:46:39.806Z,133.00
2023-07-01T05:47:42.930Z,132.83
2023-07-01T05:48:45.936Z,132.50
2023-07-01T05:49:48.923Z,132.83
2023-07-01T05:50:51.904Z,133.00
2023-07-01T05:51:54.910Z,131.33
2023-07-01T05:52:57.908Z,127.00
2023-07-01T05:54:00.906Z,123.50
2023-07-01T05:55:04.128Z,123.83
2023-07-01T05:56:07.101Z,122.50
2023-07-01T05:57:10.080Z,118.50
2023-07-01T05:58:13.082Z,118.50
2023-07-01T05:59:16.061Z,119.83
2023-07-01T06:00:19.151Z,120.00
2023-07-01T06:01:22.184Z,120.67
2023-07-01T06:02:25.234Z,122.17
2023-07-01T06:03:28.279Z,123.00
2023-07-01T06:04:31.281Z,123.33
2023-07-01T06:05:34.294Z,123.00
2023-07-01T06:06:37.337Z,123.83
2023-07-01T06:07:40.320Z,124.00
2023-07-01T06:08:43.769Z,121.83
2023-07-01T06:09:50.611Z,118.67
2023-07-01T06:10:53.780Z,118.00
2023-07-01T06:11:56.775Z,116.33
2023-07-01T06:12:59.771Z,115.83
2023-07-01T06:14:02.874Z,114.50
2023-07-01T06:15:06.651Z,113.00
2023-07-01T06:16:09.656Z,112.17
2023-07-01T06:17:12.982Z,113.00
2023-07-01T06:18:16.106Z,113.00
2023-07-01T06:19:19.119Z,113.00
2023-07-01T06:20:22.112Z,114.00
2023-07-01T06:21:25.866Z,114.00
2023-07-01T06:22:28.867Z,113.17
2023-07-01T06:23:32.160Z,113.00
2023-07-01T06:24:35.149Z,113.00
2023-07-01T06:25:38.365Z,114.00
2023-07-01T06:26:41.363Z,115.67
2023-07-01T06:27:44.348Z,117.00
2023-07-01T06:28:47.340Z,117.33
2023-07-01T06:29:50.312Z,120.50
2023-07-01T06:30:53.310Z,121.00
2023-07-01T06:31:56.329Z,119.67
2023-07-01T06:32:59.492Z,114.50
2023-07-01T06:34:05.229Z,113.50
2023-07-01T06:35:08.905Z,112.17
2023-07-01T06:36:12.073Z,109.00
2023-07-01T06:37:15.048Z,107.00
2023-07-01T06:38:18.067Z,107.00
2023-07-01T06:39:21.050Z,107.50
2023-07-01T06:40:24.026Z,108.33
2023-07-01T06:41:27.070Z,107.67
2023-07-01T06:42:30.400Z,104.17
2023-07-01T06:43:33.810Z,102.00
2023-07-01T06:44:36.856Z,101.50
2023-07-01T06:45:40.183Z,99.50
2023-07-01T06:46:43.167Z,99.33
2023-07-01T06:47:46.190Z,100.67
2023-07-01T06:48:49.217Z,103.17
2023-07-01T06:49:52.640Z,104.50
2023-07-01T06:50:55.630Z,105.00
2023-07-01T06:51:58.707Z,105.00
2023-07-01T06:53:02.920Z,106.33
2023-07-01T06:54:05.980Z,110.83
2023-07-01T06:55:09.667Z,110.00
2023-07-01T06:56:12.719Z,110.00
2023-07-01T06:57:15.711Z,111.00
2023-07-01T06:58:18.689Z,111.00
2023-07-01T06:59:21.689Z,111.00
2023-07-01T07:00:24.890Z,111.33
2023-07-01T07:01:27.923Z,109.17
2023-07-01T07:02:31.049Z,104.67
2023-07-01T07:03:35.073Z,105.83
2023-07-01T07:04:38.693Z,106.50
2023-07-01T07:05:41.780Z,99.17
2023-07-01T07:06:44.758Z,94.83
2023-07-01T07:07:48.051Z,95.00
2023-07-01T07:08:51.284Z,95.00
2023-07-01T07:09:54.394Z,94.17
2023-07-01T07:10:57.361Z,93.67
2023-07-01T07:12:00.335Z,94.50
2023-07-01T07:13:04.694Z,96.00
2023-07-01T07:14:07.682Z,100.67
2023-07-01T07:15:10.830Z,105.50
2023-07-01T07:16:13.826Z,112.00
2023-07-01T07:17:16.849Z,122.50
2023-07-01T07:18:19.928Z,122.50
2023-07-01T07:19:22.980Z,120.50
2023-07-01T07:20:25.985Z,119.33
2023-07-01T07:21:28.963Z,114.33
2023-07-01T07:22:31.947Z,110.67
2023-07-01T07:23:34.939Z,107.67
2023-07-01T07:24:38.008Z,107.00
2023-07-01T07:25:41.004Z,106.00
2023-07-01T07:26:43.990Z,106.00
2023-07-01T07:27:47.680Z,107.00
2023-07-01T07:28:50.654Z,108.67
2023-07-01T07:29:53.652Z,108.00
2023-07-01T07:30:56.667Z,106.17
2023-07-01T07:31:59.657Z,106.83
2023-07-01T07:33:02.707Z,117.67
2023-07-01T07:34:05.776Z,126.33
2023-07-01T07:35:09.158Z,122.33
2023-07-01T07:36:12.145Z,120.67
2023-07-01T07:37:15.156Z,119.00
2023-07-01T07:38:18.338Z,118.67
2023-07-01T07:39:21.627Z,121.00
2023-07-01T07:40:24.605Z,126.17
2023-07-01T07:41:27.619Z,124.83
2023-07-01T07:42:30.614Z,123.67
2023-07-01T07:43:33.593Z,122.83
2023-07-01T07:44:36.675Z,115.00
2023-07-01T07:45:39.994Z,99.00
2023-07-01T07:46:43.790Z,99.33
2023-07-01T07:47:46.874Z,98.00
2023-07-01T07:48:55.241Z,94.67
2023-07-01T07:49:58.207Z,91.00
2023-07-01T07:51:01.713Z,92.50
2023-07-01T07:52:05.508Z,96.00
2023-07-01T07:53:08.533Z,123.83
2023-07-01T07:54:12.035Z,128.67
2023-07-01T07:55:15.018Z,124.50
2023-07-01T07:56:18.091Z,122.33
2023-07-01T07:57:21.181Z,120.83
2023-07-01T07:58:25.361Z,113.67
2023-07-01T07:59:30.246Z,108.33
2023-07-01T08:00:34.292Z,105.00
2023-07-01T08:01:37.407Z,104.67
2023-07-01T08:02:45.576Z,103.83
2023-07-01T08:03:49.170Z,101.17
2023-07-01T08:04:52.449Z,100.67
2023-07-01T08:05:55.558Z,101.33
2023-07-01T08:06:58.595Z,102.00
2023-07-01T08:08:01.584Z,102.00
2023-07-01T08:09:04.547Z,104.67
2023-07-01T08:10:08.135Z,108.83
2023-07-01T08:11:11.122Z,106.50
2023-07-01T08:12:14.125Z,106.83
2023-07-01T08:13:17.199Z,106.50
2023-07-01T08:14:22.993Z,115.17
2023-07-01T08:15:25.990Z,118.33
2023-07-01T08:16:28.988Z,119.17
2023-07-01T08:17:32.034Z,120.17
2023-07-01T08:18:35.168Z,119.83
2023-07-01T08:19:38.162Z,119.17
2023-07-01T08:20:41.156Z,118.67
2023-07-01T08:21:44.131Z,118.00
2023-07-01T08:22:47.119Z,118.67
2023-07-01T08:23:50.315Z,118.00
2023-07-01T08:24:53.341Z,114.83
2023-07-01T08:25:56.314Z,103.33
2023-07-01T08:27:00.822Z,101.33
2023-07-01T08:28:03.971Z,102.00
2023-07-01T08:29:09.426Z,100.50
2023-07-01T08:30:13.558Z,100.00
2023-07-01T08:31:16.670Z,101.17
2023-07-01T08:32:19.762Z,104.33
2023-07-01T08:33:22.824Z,105.67
2023-07-01T08:34:25.803Z,106.83
2023-07-01T08:35:30.328Z,112.67
2023-07-01T08:36:33.308Z,114.00
2023-07-01T08:37:36.436Z,113.00
2023-07-01T08:38:39.437Z,113.00
2023-07-01T08:39:42.427Z,103.17
2023-07-01T08:40:51.372Z,88.33
2023-07-01T08:42:00.869Z,92.33
2023-07-01T08:43:06.760Z,93.50
2023-07-01T08:44:10.928Z,95.50
2023-07-01T08:45:14.525Z,89.00
2023-07-01T08:46:19.553Z,86.00
2023-07-01T08:47:23.352Z,83.00
2023-07-01T08:48:28.044Z,81.67
2023-07-01T08:49:31.693Z,79.00
2023-07-01T08:51:20.934Z,68.50
2023-07-01T08:52:29.656Z,68.33
2023-07-01T08:53:34.217Z,71.50
2023-07-01T08:54:38.074Z,72.83
2023-07-01T08:55:41.416Z,74.00
2023-07-01T08:56:48.607Z,74.33
2023-07-01T08:57:51.699Z,75.33
2023-07-01T08:58:54.884Z,75.67
2023-07-01T08:59:58.257Z,69.67
2023-07-01T09:01:01.289Z,68.17
2023-07-01T09:02:04.562Z,89.67
2023-07-01T09:03:08.243Z,88.33
2023-07-01T09:04:11.785Z,80.17
2023-07-01T09:05:14.809Z,81.67
2023-07-01T09:06:17.858Z,78.00
2023-07-01T09:07:20.825Z,75.00
2023-07-01T09:08:23.790Z,73.17
2023-07-01T09:09:26.898Z,74.33
2023-07-01T09:10:30.114Z,76.33
2023-07-01T09:11:33.141Z,69.83
2023-07-01T09:12:36.135Z,61.50
2023-07-01T09:13:39.123Z,58.17
2023-07-01T09:19:05.165Z,23.83
2023-07-01T09:20:11.752Z,58.67
2023-07-01T09:21:20.790Z,86.00
2023-07-01T09:22:24.372Z,149.83
2023-07-01T09:23:28.172Z,183.33
2023-07-01T09:24:39.777Z,87.83
2023-07-01T09:25:42.948Z,91.83
2023-07-01T09:26:54.075Z,83.33
2023-07-01T09:27:57.071Z,74.67
2023-07-01T09:29:09.068Z,91.50
2023-07-01T09:30:28.206Z,102.83
2023-07-01T09:31:52.313Z,89.17
2023-07-01T09:33:17.227Z,108.00
2023-07-01T09:34:20.379Z,97.33
2023-07-01T09:35:23.832Z,104.17
2023-07-01T09:36:28.273Z,109.33
2023-07-01T09:37:32.280Z,111.00
2023-07-01T09:38:52.648Z,112.50
2023-07-01T09:39:55.707Z,112.17
2023-07-01T09:41:15.512Z,103.00
2023-07-01T09:42:19.924Z,91.33
2023-07-01T09:43:34.793Z,100.83
2023-07-01T09:44:39.048Z,92.67
2023-07-01T09:45:55.747Z,102.83
2023-07-01T09:46:58.838Z,105.83
2023-07-01T09:48:12.805Z,110.50
2023-07-01T09:49:15.872Z,106.33
2023-07-01T09:50:27.544Z,103.83
2023-07-01T09:51:30.522Z,123.33
2023-07-01T09:52:35.594Z,112.00
2023-07-01T09:53:39.781Z,87.33
2023-07-01T09:54:43.629Z,97.17
2023-07-01T09:55:48.163Z,174.67
2023-07-01T09:56:52.768Z,113.00
2023-07-01T09:57:56.338Z,65.33
2023-07-01T09:58:59.341Z,77.00
2023-07-01T10:00:02.657Z,86.33
2023-07-01T10:01:06.531Z,175.33
2023-07-01T10:02:12.387Z,124.17
2023-07-01T10:03:16.946Z,60.17
2023-07-01T10:04:23.021Z,104.33
2023-07-01T10:05:26.223Z,146.83
2023-07-01T10:06:29.178Z,286.50
2023-07-01T10:07:32.792Z,235.50
2023-07-01T10:08:35.779Z,236.67
2023-07-01T10:09:48.239Z,77.00
2023-07-01T10:11:07.910Z,145.50
2023-07-01T10:12:11.993Z,321.33
2023-07-01T10:13:14.986Z,159.50
2023-07-01T10:14:18.332Z,126.33
2023-07-01T10:15:32.502Z,82.83
2023-07-01T10:16:48.212Z,44.83
2023-07-01T10:17:54.272Z,67.50
2023-07-01T10:18:57.548Z,62.83
2023-07-01T10:20:34.253Z,45.83
2023-07-01T10:21:37.336Z,68.17
2023-07-01T10:22:56.224Z,41.83
2023-07-01T10:24:01.469Z,37.67
2023-07-01T10:25:07.257Z,57.00
2023-07-01T10:26:37.255Z,30.17
2023-07-01T10:27:43.407Z,46.33
2023-07-01T10:28:46.455Z,124.17
2023-07-01T10:29:57.116Z,108.17
2023-07-01T10:31:02.911Z,52.17
2023-07-01T10:32:14.397Z,65.00
2023-07-01T10:33:29.465Z,94.17
2023-07-01T10:34:54.196Z,103.83
2023-07-01T10:36:09.752Z,97.50
2023-07-01T10:37:16.439Z,97.00
2023-07-01T10:38:27.008Z,102.83
2023-07-01T10:39:34.996Z,86.50
2023-07-01T10:40:44.729Z,56.17
2023-07-01T10:41:53.004Z,79.00
2023-07-01T10:43:31.408Z,98.83
2023-07-01T10:44:34.389Z,78.00
2023-07-01T10:45:40.816Z,89.33
2023-07-01T10:46:43.814Z,97.67
2023-07-01T10:47:47.019Z,114.00
2023-07-01T10:49:08.239Z,90.67
2023-07-01T10:50:16.221Z,58.50
2023-07-01T10:51:19.239Z,84.00
2023-07-01T10:52:23.083Z,132.50
2023-07-01T10:53:28.235Z,107.67
2023-07-01T10:54:41.034Z,154.67
2023-07-01T10:55:48.778Z,251.67
2023-07-01T10:57:17.364Z,312.17
2023-07-01T10:58:30.069Z,212.67
2023-07-01T10:59:33.061Z,155.33
2023-07-01T11:00:37.115Z,126.33
2023-07-01T11:01:45.095Z,133.33
2023-07-01T11:02:48.238Z,281.17
2023-07-01T11:03:51.398Z,222.67
2023-07-01T11:04:58.057Z,149.33
2023-07-01T11:06:08.971Z,85.33
2023-07-01T11:07:12.366Z,144.33
2023-07-01T11:08:15.374Z,194.67
2023-07-01T11:09:29.265Z,215.67
2023-07-01T11:10:32.418Z,186.67
2023-07-01T11:11:35.419Z,181.50
2023-07-01T11:12:39.412Z,325.83
2023-07-01T11:13:42.405Z,270.67
2023-07-01T11:14:45.726Z,160.00
2023-07-01T11:16:10.467Z,182.67
2023-07-01T11:17:20.563Z,187.50
2023-07-01T11:18:23.606Z,135.50
2023-07-01T11:19:26.585Z,137.17
2023-07-01T11:20:49.747Z,156.00
2023-07-01T11:21:53.598Z,186.83
2023-07-01T11:22:56.633Z,217.83
2023-07-01T11:24:04.766Z,182.17
2023-07-01T11:25:08.133Z,189.67
2023-07-01T11:26:11.459Z,130.50
2023-07-01T11:27:14.458Z,147.00
2023-07-01T11:28:33.545Z,149.50
2023-07-01T11:29:39.410Z,138.17
2023-07-01T11:30:42.621Z,180.17
2023-07-01T11:31:46.586Z,200.00
2023-07-01T11:32:49.666Z,227.67
2023-07-01T11:33:57.219Z,205.33
2023-07-01T11:35:00.382Z,207.67
2023-07-01T11:36:03.382Z,284.17
2023-07-01T11:37:07.255Z,210.00
2023-07-01T11:38:28.723Z,132.00
2023-07-01T11:39:31.737Z,107.83
2023-07-01T11:40:41.526Z,96.17
2023-07-01T11:41:50.970Z,90.33
2023-07-01T11:42:55.085Z,89.50
2023-07-01T11:43:58.056Z,87.50
2023-07-01T11:45:06.306Z,68.33
2023-07-01T11:46:11.125Z,79.83
2023-07-01T11:47:16.373Z,82.17
2023-07-01T11:48:34.077Z,79.33
2023-07-01T11:49:37.082Z,84.50
2023-07-01T11:50:53.119Z,65.33
2023-07-01T11:52:05.677Z,61.67
2023-07-01T11:53:08.665Z,45.33
2023-07-01T11:54:14.509Z,48.00
2023-07-01T11:55:35.387Z,57.17
2023-07-01T11:56:38.374Z,51.50
2023-07-01T11:57:41.367Z,46.17
2023-07-01T12:00:01.892Z,43.17
2023-07-01T12:01:23.146Z,39.33
2023-07-01T12:02:31.440Z,34.67
2023-07-01T12:03:36.176Z,42.83
2023-07-01T12:04:39.760Z,38.83
2023-07-01T12:05:46.843Z,35.83
2023-07-01T12:06:50.310Z,31.67
2023-07-01T12:07:58.207Z,30.50
2023-07-01T12:09:08.607Z,34.17
2023-07-01T12:10:21.901Z,36.67
2023-07-01T12:11:26.398Z,32.00
2023-07-01T12:12:35.100Z,27.33
2023-07-01T12:13:38.084Z,28.00
2023-07-01T12:14:41.208Z,29.67
2023-07-01T12:15:54.563Z,27.17
2023-07-01T12:16:58.030Z,26.67
2023-07-01T12:18:23.561Z,23.17
2023-07-01T12:19:26.754Z,25.33
2023-07-01T12:20:29.723Z,23.67
2023-07-01T12:21:32.695Z,35.17
2023-07-01T12:22:36.849Z,63.00
2023-07-01T12:23:44.869Z,52.00
2023-07-01T12:25:02.935Z,35.00
2023-07-01T12:26:06.538Z,17.83
2023-07-01T12:27:09.501Z,16.00
2023-07-01T12:28:12.515Z,154.50
2023-07-01T12:29:16.581Z,297.33
2023-07-01T12:30:19.627Z,308.67
2023-07-01T12:31:22.817Z,311.83
2023-07-01T12:32:27.115Z,185.83
2023-07-01T12:33:30.336Z,101.00
2023-07-01T12:34:33.315Z,42.33
2023-07-01T12:35:36.377Z,29.00
2023-07-01T12:36:39.661Z,29.17
2023-07-01T12:37:43.480Z,28.67
2023-07-01T12:38:46.545Z,26.83
2023-07-01T12:39:54.672Z,24.17
2023-07-01T12:40:58.735Z,24.00
2023-07-01T12:42:02.102Z,19.17
2023-07-01T12:43:07.796Z,19.33
2023-07-01T12:44:11.063Z,20.00
2023-07-01T12:45:14.055Z,22.67
2023-07-01T12:46:17.092Z,23.67
2023-07-01T12:47:22.969Z,23.50
2023-07-01T12:48:26.015Z,25.50
2023-07-01T12:49:29.183Z,20.67
2023-07-01T12:50:32.919Z,14.67
2023-07-01T12:51:38.961Z,14.50
2023-07-01T12:52:42.007Z,13.83
2023-07-01T12:53:44.995Z,12.33
2023-07-01T12:54:47.984Z,12.33
2023-07-01T12:55:51.201Z,13.33
2023-07-01T12:56:54.204Z,13.50
2023-07-01T12:57:57.353Z,14.00
2023-07-01T12:59:00.915Z,14.00
2023-07-01T13:00:07.126Z,14.33
2023-07-01T13:01:10.144Z,15.00
2023-07-01T13:02:14.030Z,15.83
2023-07-01T13:03:17.011Z,15.17
2023-07-01T13:04:20.290Z,14.00
2023-07-01T13:05:25.601Z,13.83
2023-07-01T13:06:35.024Z,13.33
2023-07-01T13:07:38.032Z,14.00
2023-07-01T13:08:41.224Z,14.00
2023-07-01T13:09:51.364Z,14.00
2023-07-01T13:10:54.606Z,14.00
2023-07-01T13:11:57.614Z,14.00
2023-07-01T13:13:00.629Z,14.00
2023-07-01T13:14:13.513Z,15.00
2023-07-01T13:15:31.909Z,15.00
2023-07-01T13:16:37.348Z,15.33
2023-07-01T13:17:42.461Z,14.33
2023-07-01T13:18:46.123Z,14.00
2023-07-01T13:19:49.111Z,13.83
2023-07-01T13:20:52.247Z,14.00
2023-07-01T13:21:55.248Z,14.00
2023-07-01T13:22:59.350Z,13.00
2023-07-01T13:24:06.307Z,11.50
2023-07-01T13:25:18.702Z,10.00
2023-07-01T13:26:33.065Z,8.50
2023-07-01T13:27:36.123Z,8.00
2023-07-01T13:28:39.149Z,8.00
2023-07-01T13:29:42.183Z,8.83
2023-07-01T13:30:51.060Z,11.00
2023-07-01T13:31:57.240Z,33.00
2023-07-01T13:33:03.445Z,111.50
2023-07-01T13:34:09.129Z,86.83
2023-07-01T13:35:15.702Z,52.33
2023-07-01T13:36:21.878Z,47.67
2023-07-01T13:37:24.855Z,39.00
2023-07-01T13:38:27.848Z,27.50
2023-07-01T13:39:49.731Z,21.00
2023-07-01T13:40:57.096Z,13.00
2023-07-01T13:42:01.740Z,11.67
2023-07-01T13:43:07.832Z,11.83
2023-07-01T13:44:21.229Z,10.33